Challenge Pollux — 9V5639 — position and weather

sailwx.info

Track history (hours):
 
Tides and Currents Weather Stations Pressure Air Temp Water Temp Dewpoint Dewpoint Depression Visibility Wind Speed Wind Dir Waves Ship Positions

Challenge Pollux

Last reported at 2018-Aug-20 13:00 UTC. Time now 2018-Aug-20 16:17 UTC.
Position N 37°36' E 153°48'.

Length 183 m; draft 8.5 m.

Type: Tanker. MMSI: 563032400.

Wind from 210 at 10 knots

Barometer 1016.0 mb
Visibility: greater than 10.8 NM

Date/timePositionNaut miles runAvg speedWind from/ knotsBaromVisibWave heightAir tempDewpointWater temp
2018-Aug-20 13:00N 37°36' E 153°48'1414.3 210 / 101016.010.8
2018-Aug-20 12:00N 37°36' E 153°30'2311.3 200 / 101016.010.8 24.015.826.0
2018-Aug-20 10:00N 37°24' E 153°06'1615.5 040 / 61015.010.8 25.015.1
2018-Aug-20 09:00N 37°18' E 152°48'13413.4 090 / 61015.010.8 25.015.1
2018-Aug-19 23:00N 36°30' E 150°12'1414.5 060 / 161016.010.8 24.015.8
2018-Aug-19 22:00N 36°30' E 149°54'1615.7 050 / 141016.010.8 24.015.8
2018-Aug-19 21:00N 36°24' E 149°36'1615.7 040 / 131015.010.8 23.014.6
2018-Aug-19 20:00N 36°18' E 149°18'29792978.7 070 / 101015.010.8 23.014.6
2018-Aug-19 19:00N 36°18' W 149°06'3041760.2 080 / 101015.010.8 24.015.825.0
2018-Aug-19 15:00N 36°06' E 148°06'9912.3 210 / 101015.010.8 23.016.526.0
2018-Aug-19 07:00N 35°48' E 146°06'31012.6 060 / 131014.010.8 26.016.426.0
2018-Aug-18 06:27N 34°46' E 139°54'611.8
2018-Aug-18 05:57N 34°50' E 139°48'512.1
2018-Aug-18 05:30N 34°53' E 139°44'712.9
2018-Aug-18 05:00N 34°60' E 139°41'612.4
2018-Aug-18 04:31N 35°05' E 139°44'611.9
2018-Aug-18 04:00N 35°11' E 139°46'510.7
2018-Aug-18 03:30N 35°16' E 139°45'612.3
2018-Aug-18 03:00N 35°22' E 139°42'4 8.1
2018-Aug-18 02:28N 35°26' E 139°44'0 0.2
2018-Aug-18 01:55N 35°26' E 139°44'0 0.0
2018-Aug-18 01:28N 35°26' E 139°44'0 0.0
2018-Aug-18 00:58N 35°26' E 139°44'0 0.0
2018-Aug-18 00:28N 35°26' E 139°44'0 0.0
2018-Aug-17 23:58N 35°26' E 139°44'0 0.0
2018-Aug-17 23:28N 35°26' E 139°44'0 0.0
2018-Aug-17 22:58N 35°26' E 139°44'0 0.1
2018-Aug-17 22:28N 35°26' E 139°44'0 0.1
2018-Aug-17 21:49N 35°26' E 139°44'0 0.1
2018-Aug-17 21:28N 35°26' E 139°44'0 0.0
2018-Aug-17 20:58N 35°26' E 139°44'0 0.0
2018-Aug-17 20:28N 35°26' E 139°44'0 0.0
2018-Aug-17 19:58N 35°26' E 139°44'0 0.1
2018-Aug-17 19:28N 35°26' E 139°44'0 0.0
2018-Aug-17 18:58N 35°26' E 139°44'0 0.0
2018-Aug-17 18:28N 35°26' E 139°44'0 0.0
2018-Aug-17 17:58N 35°26' E 139°44'0 0.0
2018-Aug-17 17:28N 35°26' E 139°44'0 0.0
2018-Aug-17 16:58N 35°26' E 139°44'0 0.0
2018-Aug-17 16:28N 35°26' E 139°44'0 0.0
2018-Aug-17 15:58N 35°26' E 139°44'0 0.0
2018-Aug-17 15:28N 35°26' E 139°44'0 0.0
2018-Aug-17 14:58N 35°26' E 139°44'0 0.0
2018-Aug-17 14:28N 35°26' E 139°44'0 0.1
2018-Aug-17 13:28N 35°26' E 139°44'0 0.0
2018-Aug-17 12:58N 35°26' E 139°44'0 0.0
2018-Aug-17 12:28N 35°26' E 139°44'0 0.0
2018-Aug-17 11:58N 35°26' E 139°44'0 0.0
2018-Aug-17 11:28N 35°26' E 139°44'0 0.0
2018-Aug-17 10:55N 35°26' E 139°44'0 0.0
2018-Aug-17 10:28N 35°26' E 139°44'0 0.1
2018-Aug-17 09:58N 35°26' E 139°44'0 0.1
2018-Aug-17 09:28N 35°26' E 139°44'0 0.0
2018-Aug-17 08:58N 35°26' E 139°44'0 0.0
2018-Aug-17 08:28N 35°26' E 139°44'0 0.0
2018-Aug-17 07:58N 35°26' E 139°44'0 0.0
2018-Aug-17 07:28N 35°26' E 139°44'0 0.0
2018-Aug-17 06:58N 35°26' E 139°44'0 0.1
2018-Aug-17 06:25N 35°26' E 139°44'0 0.1
2018-Aug-17 05:58N 35°26' E 139°44'0 0.0
2018-Aug-17 05:28N 35°26' E 139°44'0 0.0
2018-Aug-17 05:00N 35°26' E 139°44'0 0.1
2018-Aug-17 04:30N 35°26' E 139°44'2 3.4
2018-Aug-17 04:00N 35°25' E 139°43'3 5.4
2018-Aug-17 03:30N 35°24' E 139°39'1 1.7
2018-Aug-17 03:00N 35°25' E 139°39'0 0.0
2018-Aug-17 02:30N 35°25' E 139°39'0 0.0
2018-Aug-17 02:00N 35°25' E 139°39'0 0.0
2018-Aug-17 01:30N 35°25' E 139°39'0 0.0
2018-Aug-17 00:57N 35°25' E 139°39'0 0.0
2018-Aug-17 00:30N 35°25' E 139°39'0 0.0
2018-Aug-16 23:57N 35°25' E 139°39'0 0.0
2018-Aug-16 23:27N 35°25' E 139°39'0 0.0
2018-Aug-16 22:57N 35°25' E 139°39'0 0.0
2018-Aug-16 22:27N 35°25' E 139°39'0 0.0
2018-Aug-16 22:00N 35°25' E 139°39'0 0.0
2018-Aug-16 21:30N 35°25' E 139°39'0 0.0
2018-Aug-16 21:00N 35°25' E 139°39'0 0.0
2018-Aug-16 20:30N 35°25' E 139°39'0 0.0
2018-Aug-16 20:00N 35°25' E 139°39'0 0.0
2018-Aug-16 19:30N 35°25' E 139°39'0 0.0
2018-Aug-16 19:00N 35°25' E 139°39'0 0.0
2018-Aug-16 18:30N 35°25' E 139°39'0 0.0
2018-Aug-16 18:00N 35°25' E 139°39'0 0.0
2018-Aug-16 17:30N 35°25' E 139°39'0 0.0
2018-Aug-16 17:00N 35°25' E 139°39'0 0.0
2018-Aug-16 16:21N 35°25' E 139°39'0 0.0
2018-Aug-16 16:00N 35°25' E 139°39'0 0.0
2018-Aug-16 15:30N 35°25' E 139°39'0 0.0
2018-Aug-16 15:00N 35°25' E 139°39'0 0.0
2018-Aug-16 14:27N 35°25' E 139°39'0 0.0
2018-Aug-16 13:57N 35°25' E 139°39'0 0.0
2018-Aug-16 13:30N 35°25' E 139°39'0 0.0
2018-Aug-16 12:57N 35°25' E 139°39'0 0.0
2018-Aug-16 12:30N 35°25' E 139°39'0 0.0
2018-Aug-16 12:00N 35°25' E 139°39'0 0.0
2018-Aug-16 11:30N 35°25' E 139°39'0 0.0
2018-Aug-16 11:00N 35°25' E 139°39'0 0.0
2018-Aug-16 10:27N 35°25' E 139°39'0 0.0
2018-Aug-16 10:00N 35°25' E 139°39'0 0.0
2018-Aug-16 09:27N 35°25' E 139°39'0 0.0
2018-Aug-16 08:57N 35°25' E 139°39'0 0.0
2018-Aug-16 08:27N 35°25' E 139°39'0 0.0
2018-Aug-16 07:57N 35°25' E 139°39'0 0.0
2018-Aug-16 07:27N 35°25' E 139°39'0 0.0
2018-Aug-16 06:57N 35°25' E 139°39'0 0.0
2018-Aug-16 06:30N 35°25' E 139°39'0 0.0
2018-Aug-16 05:57N 35°25' E 139°39'0 0.0
2018-Aug-16 05:27N 35°25' E 139°39'0 0.0
2018-Aug-16 05:00N 35°25' E 139°39'0 0.0
2018-Aug-16 04:27N 35°25' E 139°39'0 0.0
2018-Aug-16 03:57N 35°25' E 139°39'0 0.0
2018-Aug-16 03:27N 35°25' E 139°39'0 0.0
2018-Aug-16 02:57N 35°25' E 139°39'0 0.0
2018-Aug-16 02:15N 35°25' E 139°39'0 0.0
2018-Aug-16 01:57N 35°25' E 139°39'0 0.0
2018-Aug-16 01:27N 35°25' E 139°39'0 0.0
2018-Aug-16 00:51N 35°25' E 139°39'0 0.0
2018-Aug-16 00:30N 35°25' E 139°39'0 0.2
2018-Aug-16 00:00N 35°25' E 139°39'2 3.9
2018-Aug-15 23:30N 35°23' E 139°41'4 7.1
2018-Aug-15 23:00N 35°26' E 139°44'0 0.1
2018-Aug-15 22:30N 35°26' E 139°44'0 0.0
2018-Aug-15 22:00N 35°26' E 139°44'0 0.0
2018-Aug-15 21:30N 35°26' E 139°44'0 0.0
2018-Aug-15 20:59N 35°26' E 139°44'0 0.0
2018-Aug-15 20:29N 35°26' E 139°44'0 0.0
2018-Aug-15 20:00N 35°26' E 139°44'0 0.1
2018-Aug-15 19:27N 35°26' E 139°44'0 0.0
2018-Aug-15 18:59N 35°26' E 139°44'0 0.0
2018-Aug-15 18:30N 35°26' E 139°44'0 0.1
2018-Aug-15 17:59N 35°26' E 139°44'0 0.1
2018-Aug-15 17:29N 35°26' E 139°44'0 0.0
2018-Aug-15 16:59N 35°26' E 139°44'0 0.1
2018-Aug-15 16:30N 35°26' E 139°44'0 0.1
2018-Aug-15 16:00N 35°26' E 139°44'0 0.1
2018-Aug-15 15:30N 35°26' E 139°44'0 0.0
2018-Aug-15 14:59N 35°26' E 139°44'0 0.0
2018-Aug-15 14:29N 35°26' E 139°44'0 0.0
2018-Aug-15 13:59N 35°26' E 139°44'0 0.0
2018-Aug-15 13:29N 35°26' E 139°44'0 0.0
2018-Aug-15 12:59N 35°26' E 139°44'0 0.0
2018-Aug-15 12:29N 35°26' E 139°44'0 0.0
2018-Aug-15 11:59N 35°26' E 139°44'0 0.0
2018-Aug-15 11:29N 35°26' E 139°44'0 0.0
2018-Aug-15 10:59N 35°26' E 139°44'0 0.0
2018-Aug-15 10:29N 35°26' E 139°44'0 0.0
2018-Aug-15 09:59N 35°26' E 139°44'0 0.0
2018-Aug-15 09:29N 35°26' E 139°44'0 0.0
2018-Aug-15 09:00N 35°26' E 139°44'0 0.0
2018-Aug-15 08:30N 35°26' E 139°44'0 0.0
2018-Aug-15 07:59N 35°26' E 139°44'0 0.0
2018-Aug-15 07:26N 35°26' E 139°44'0 0.0
2018-Aug-15 06:59N 35°26' E 139°44'0 0.1
2018-Aug-15 06:29N 35°26' E 139°44'0 0.0
2018-Aug-15 05:59N 35°26' E 139°44'0 0.0
2018-Aug-15 05:29N 35°26' E 139°44'0 0.0
2018-Aug-15 04:59N 35°26' E 139°44'0 0.0
2018-Aug-15 04:29N 35°26' E 139°44'0 0.0
2018-Aug-15 03:59N 35°26' E 139°44'0 0.1
2018-Aug-15 03:29N 35°26' E 139°44'0 0.1
2018-Aug-15 02:59N 35°26' E 139°44'0 0.0
2018-Aug-15 02:31N 35°26' E 139°44'2 4.9
2018-Aug-15 02:01N 35°27' E 139°47'510.2
2018-Aug-15 01:31N 35°30' E 139°52'510.3
2018-Aug-15 01:00N 35°31' E 139°58'3 0.1
2018-Aug-14 03:50N 35°30' E 140°01'0 1.2
2018-Aug-14 03:30N 35°30' E 140°01'3 6.2
2018-Aug-14 03:00N 35°32' E 139°58'2 1.7
2018-Aug-14 02:07N 35°33' E 139°56'0 0.0
2018-Aug-14 01:55N 35°33' E 139°56'0 0.0
2018-Aug-14 00:19N 35°33' E 139°56'0 0.0
2018-Aug-13 23:58N 35°33' E 139°56'0 0.0
2018-Aug-13 23:01N 35°33' E 139°56'0 0.0
2018-Aug-13 22:37N 35°33' E 139°56'0 0.0
2018-Aug-13 22:16N 35°33' E 139°56'0 0.1
2018-Aug-13 21:55N 35°33' E 139°56'0 0.0
2018-Aug-13 21:25N 35°33' E 139°56'0 0.1
2018-Aug-13 20:43N 35°33' E 139°56'0 0.0
2018-Aug-13 20:22N 35°33' E 139°56'0 0.0
2018-Aug-13 18:46N 35°33' E 139°56'0 0.0
2018-Aug-13 17:49N 35°33' E 139°56'0 0.1
2018-Aug-13 17:25N 35°33' E 139°56'0 0.1
2018-Aug-13 16:58N 35°33' E 139°56'0 0.1
2018-Aug-13 16:25N 35°33' E 139°56'0 0.1
2018-Aug-13 15:58N 35°33' E 139°56'0 0.1
2018-Aug-13 15:07N 35°33' E 139°56'0 0.0
2018-Aug-13 14:58N 35°33' E 139°56'0 0.0
2018-Aug-13 14:25N 35°33' E 139°56'0 0.1
2018-Aug-13 13:58N 35°33' E 139°56'0 0.1
2018-Aug-13 13:10N 35°33' E 139°56'0 0.0
2018-Aug-13 12:58N 35°33' E 139°56'0 0.0
2018-Aug-13 11:52N 35°33' E 139°56'0 0.3
2018-Aug-13 11:30N 35°33' E 139°56'3 5.0
2018-Aug-13 11:00N 35°31' E 139°54'510.5
2018-Aug-13 10:30N 35°27' E 139°50'611.9
2018-Aug-13 10:01N 35°22' E 139°45'611.1
2018-Aug-13 09:30N 35°17' E 139°46'611.8
2018-Aug-13 09:00N 35°11' E 139°47'3 6.8
2018-Aug-13 08:31N 35°08' E 139°46'2 4.5
2018-Aug-13 08:00N 35°05' E 139°45'4 7.4
2018-Aug-13 07:30N 35°03' E 139°42'3 5.0
2018-Aug-13 07:00N 35°02' E 139°39'3 6.1
2018-Aug-13 06:30N 34°60' E 139°37'713.0
2018-Aug-13 06:00N 34°56' E 139°30'23111.8
2018-Aug-12 10:27N 33°38' E 135°07'1011.3
2018-Aug-12 09:34N 33°46' E 134°58'111.6
2018-Aug-12 09:30N 33°46' E 134°58'811.9
2018-Aug-12 08:48N 33°54' E 134°56'312.2
2018-Aug-12 08:31N 33°58' E 134°56'712.4
2018-Aug-12 07:59N 34°04' E 134°56'612.4
2018-Aug-12 07:30N 34°10' E 134°55'5 9.7
2018-Aug-12 07:00N 34°15' E 134°58'612.7
2018-Aug-12 06:31N 34°21' E 134°59'612.8
2018-Aug-12 06:01N 34°27' E 135°02'713.3
2018-Aug-12 05:31N 34°32' E 135°07'3 6.0
2018-Aug-12 05:00N 34°35' E 135°05'813.9
2018-Aug-12 04:26N 34°36' E 134°55'715.9
2018-Aug-12 04:00N 34°33' E 134°47'713.8
2018-Aug-12 03:30N 34°30' E 134°40'713.3
2018-Aug-12 03:00N 34°28' E 134°32'713.5
2018-Aug-12 02:29N 34°25' E 134°25'713.5
2018-Aug-12 02:00N 34°24' E 134°17'7 0.2
2018-Aug-10 20:54N 34°26' E 134°25'511.5
2018-Aug-10 20:30N 34°27' E 134°30'611.4
2018-Aug-10 20:01N 34°30' E 134°36'611.4
2018-Aug-10 19:31N 34°32' E 134°43'713.1
2018-Aug-10 19:01N 34°34' E 134°50'612.0
2018-Aug-10 18:30N 34°37' E 134°57'5 9.5
2018-Aug-10 18:00N 34°37' E 135°02'5 8.9
2018-Aug-10 17:30N 34°34' E 135°07'3 6.4
2018-Aug-10 17:00N 34°31' E 135°08'510.9
2018-Aug-10 16:31N 34°27' E 135°05'611.4
2018-Aug-10 16:01N 34°22' E 135°02'611.1
2018-Aug-10 15:31N 34°16' E 134°59'511.0
2018-Aug-10 15:01N 34°11' E 134°59'4 8.6
2018-Aug-10 14:31N 34°07' E 134°58'4 7.8
2018-Aug-10 14:01N 34°03' E 134°56'3 5.3
2018-Aug-10 13:31N 34°01' E 134°56'3 5.6
2018-Aug-10 13:01N 33°58' E 134°56'  
Track history (hours):
 
Tides and Currents Weather Stations Pressure Air Temp Water Temp Dewpoint Dewpoint Depression Visibility Wind Speed Wind Dir Waves Ship Positions

Challenge Pollux

Last reported at 2018-Aug-20 13:00 UTC. Time now 2018-Aug-20 16:17 UTC.
Position N 37°36' E 153°48'.

Length 183 m; draft 8.5 m.

Type: Tanker. MMSI: 563032400.

Wind from 210 at 10 knots

Barometer 1016.0 mb
Visibility: greater than 10.8 NM

Date/timePositionNaut miles runAvg speedWind from/ knotsBaromVisibWave heightAir tempDewpointWater temp
2018-Aug-20 13:00N 37°36' E 153°48'1414.3 210 / 101016.010.8
2018-Aug-20 12:00N 37°36' E 153°30'2311.3 200 / 101016.010.8 24.015.826.0
2018-Aug-20 10:00N 37°24' E 153°06'1615.5 040 / 61015.010.8 25.015.1
2018-Aug-20 09:00N 37°18' E 152°48'13413.4 090 / 61015.010.8 25.015.1
2018-Aug-19 23:00N 36°30' E 150°12'1414.5 060 / 161016.010.8 24.015.8
2018-Aug-19 22:00N 36°30' E 149°54'1615.7 050 / 141016.010.8 24.015.8
2018-Aug-19 21:00N 36°24' E 149°36'1615.7 040 / 131015.010.8 23.014.6
2018-Aug-19 20:00N 36°18' E 149°18'29792978.7 070 / 101015.010.8 23.014.6
2018-Aug-19 19:00N 36°18' W 149°06'3041760.2 080 / 101015.010.8 24.015.825.0
2018-Aug-19 15:00N 36°06' E 148°06'9912.3 210 / 101015.010.8 23.016.526.0
2018-Aug-19 07:00N 35°48' E 146°06'31012.6 060 / 131014.010.8 26.016.426.0
2018-Aug-18 06:27N 34°46' E 139°54'611.8
2018-Aug-18 05:57N 34°50' E 139°48'512.1
2018-Aug-18 05:30N 34°53' E 139°44'712.9
2018-Aug-18 05:00N 34°60' E 139°41'612.4
2018-Aug-18 04:31N 35°05' E 139°44'611.9
2018-Aug-18 04:00N 35°11' E 139°46'510.7
2018-Aug-18 03:30N 35°16' E 139°45'612.3
2018-Aug-18 03:00N 35°22' E 139°42'4 8.1
2018-Aug-18 02:28N 35°26' E 139°44'0 0.2
2018-Aug-18 01:55N 35°26' E 139°44'0 0.0
2018-Aug-18 01:28N 35°26' E 139°44'0 0.0
2018-Aug-18 00:58N 35°26' E 139°44'0 0.0
2018-Aug-18 00:28N 35°26' E 139°44'0 0.0
2018-Aug-17 23:58N 35°26' E 139°44'0 0.0
2018-Aug-17 23:28N 35°26' E 139°44'0 0.0
2018-Aug-17 22:58N 35°26' E 139°44'0 0.1
2018-Aug-17 22:28N 35°26' E 139°44'0 0.1
2018-Aug-17 21:49N 35°26' E 139°44'0 0.1
2018-Aug-17 21:28N 35°26' E 139°44'0 0.0
2018-Aug-17 20:58N 35°26' E 139°44'0 0.0
2018-Aug-17 20:28N 35°26' E 139°44'0 0.0
2018-Aug-17 19:58N 35°26' E 139°44'0 0.1
2018-Aug-17 19:28N 35°26' E 139°44'0 0.0
2018-Aug-17 18:58N 35°26' E 139°44'0 0.0
2018-Aug-17 18:28N 35°26' E 139°44'0 0.0
2018-Aug-17 17:58N 35°26' E 139°44'0 0.0
2018-Aug-17 17:28N 35°26' E 139°44'0 0.0
2018-Aug-17 16:58N 35°26' E 139°44'0 0.0
2018-Aug-17 16:28N 35°26' E 139°44'0 0.0
2018-Aug-17 15:58N 35°26' E 139°44'0 0.0
2018-Aug-17 15:28N 35°26' E 139°44'0 0.0
2018-Aug-17 14:58N 35°26' E 139°44'0 0.0
2018-Aug-17 14:28N 35°26' E 139°44'0 0.1
2018-Aug-17 13:28N 35°26' E 139°44'0 0.0
2018-Aug-17 12:58N 35°26' E 139°44'0 0.0
2018-Aug-17 12:28N 35°26' E 139°44'0 0.0
2018-Aug-17 11:58N 35°26' E 139°44'0 0.0
2018-Aug-17 11:28N 35°26' E 139°44'0 0.0
2018-Aug-17 10:55N 35°26' E 139°44'0 0.0
2018-Aug-17 10:28N 35°26' E 139°44'0 0.1
2018-Aug-17 09:58N 35°26' E 139°44'0 0.1
2018-Aug-17 09:28N 35°26' E 139°44'0 0.0
2018-Aug-17 08:58N 35°26' E 139°44'0 0.0
2018-Aug-17 08:28N 35°26' E 139°44'0 0.0
2018-Aug-17 07:58N 35°26' E 139°44'0 0.0
2018-Aug-17 07:28N 35°26' E 139°44'0 0.0
2018-Aug-17 06:58N 35°26' E 139°44'0 0.1
2018-Aug-17 06:25N 35°26' E 139°44'0 0.1
2018-Aug-17 05:58N 35°26' E 139°44'0 0.0
2018-Aug-17 05:28N 35°26' E 139°44'0 0.0
2018-Aug-17 05:00N 35°26' E 139°44'0 0.1
2018-Aug-17 04:30N 35°26' E 139°44'2 3.4
2018-Aug-17 04:00N 35°25' E 139°43'3 5.4
2018-Aug-17 03:30N 35°24' E 139°39'1 1.7
2018-Aug-17 03:00N 35°25' E 139°39'0 0.0
2018-Aug-17 02:30N 35°25' E 139°39'0 0.0
2018-Aug-17 02:00N 35°25' E 139°39'0 0.0
2018-Aug-17 01:30N 35°25' E 139°39'0 0.0
2018-Aug-17 00:57N 35°25' E 139°39'0 0.0
2018-Aug-17 00:30N 35°25' E 139°39'0 0.0
2018-Aug-16 23:57N 35°25' E 139°39'0 0.0
2018-Aug-16 23:27N 35°25' E 139°39'0 0.0
2018-Aug-16 22:57N 35°25' E 139°39'0 0.0
2018-Aug-16 22:27N 35°25' E 139°39'0 0.0
2018-Aug-16 22:00N 35°25' E 139°39'0 0.0
2018-Aug-16 21:30N 35°25' E 139°39'0 0.0
2018-Aug-16 21:00N 35°25' E 139°39'0 0.0
2018-Aug-16 20:30N 35°25' E 139°39'0 0.0
2018-Aug-16 20:00N 35°25' E 139°39'0 0.0
2018-Aug-16 19:30N 35°25' E 139°39'0 0.0
2018-Aug-16 19:00N 35°25' E 139°39'0 0.0
2018-Aug-16 18:30N 35°25' E 139°39'0 0.0
2018-Aug-16 18:00N 35°25' E 139°39'0 0.0
2018-Aug-16 17:30N 35°25' E 139°39'0 0.0
2018-Aug-16 17:00N 35°25' E 139°39'0 0.0
2018-Aug-16 16:21N 35°25' E 139°39'0 0.0
2018-Aug-16 16:00N 35°25' E 139°39'0 0.0
2018-Aug-16 15:30N 35°25' E 139°39'0 0.0
2018-Aug-16 15:00N 35°25' E 139°39'0 0.0
2018-Aug-16 14:27N 35°25' E 139°39'0 0.0
2018-Aug-16 13:57N 35°25' E 139°39'0 0.0
2018-Aug-16 13:30N 35°25' E 139°39'0 0.0
2018-Aug-16 12:57N 35°25' E 139°39'0 0.0
2018-Aug-16 12:30N 35°25' E 139°39'0 0.0
2018-Aug-16 12:00N 35°25' E 139°39'0 0.0
2018-Aug-16 11:30N 35°25' E 139°39'0 0.0
2018-Aug-16 11:00N 35°25' E 139°39'0 0.0
2018-Aug-16 10:27N 35°25' E 139°39'0 0.0
2018-Aug-16 10:00N 35°25' E 139°39'0 0.0
2018-Aug-16 09:27N 35°25' E 139°39'0 0.0
2018-Aug-16 08:57N 35°25' E 139°39'0 0.0
2018-Aug-16 08:27N 35°25' E 139°39'0 0.0
2018-Aug-16 07:57N 35°25' E 139°39'0 0.0
2018-Aug-16 07:27N 35°25' E 139°39'0 0.0
2018-Aug-16 06:57N 35°25' E 139°39'0 0.0
2018-Aug-16 06:30N 35°25' E 139°39'0 0.0
2018-Aug-16 05:57N 35°25' E 139°39'0 0.0
2018-Aug-16 05:27N 35°25' E 139°39'0 0.0
2018-Aug-16 05:00N 35°25' E 139°39'0 0.0
2018-Aug-16 04:27N 35°25' E 139°39'0 0.0
2018-Aug-16 03:57N 35°25' E 139°39'0 0.0
2018-Aug-16 03:27N 35°25' E 139°39'0 0.0
2018-Aug-16 02:57N 35°25' E 139°39'0 0.0
2018-Aug-16 02:15N 35°25' E 139°39'0 0.0
2018-Aug-16 01:57N 35°25' E 139°39'0 0.0
2018-Aug-16 01:27N 35°25' E 139°39'0 0.0
2018-Aug-16 00:51N 35°25' E 139°39'0 0.0
2018-Aug-16 00:30N 35°25' E 139°39'0 0.2
2018-Aug-16 00:00N 35°25' E 139°39'2 3.9
2018-Aug-15 23:30N 35°23' E 139°41'4 7.1
2018-Aug-15 23:00N 35°26' E 139°44'0 0.1
2018-Aug-15 22:30N 35°26' E 139°44'0 0.0
2018-Aug-15 22:00N 35°26' E 139°44'0 0.0
2018-Aug-15 21:30N 35°26' E 139°44'0 0.0
2018-Aug-15 20:59N 35°26' E 139°44'0 0.0
2018-Aug-15 20:29N 35°26' E 139°44'0 0.0
2018-Aug-15 20:00N 35°26' E 139°44'0 0.1
2018-Aug-15 19:27N 35°26' E 139°44'0 0.0
2018-Aug-15 18:59N 35°26' E 139°44'0 0.0
2018-Aug-15 18:30N 35°26' E 139°44'0 0.1
2018-Aug-15 17:59N 35°26' E 139°44'0 0.1
2018-Aug-15 17:29N 35°26' E 139°44'0 0.0
2018-Aug-15 16:59N 35°26' E 139°44'0 0.1
2018-Aug-15 16:30N 35°26' E 139°44'0 0.1
2018-Aug-15 16:00N 35°26' E 139°44'0 0.1
2018-Aug-15 15:30N 35°26' E 139°44'0 0.0
2018-Aug-15 14:59N 35°26' E 139°44'0 0.0
2018-Aug-15 14:29N 35°26' E 139°44'0 0.0
2018-Aug-15 13:59N 35°26' E 139°44'0 0.0
2018-Aug-15 13:29N 35°26' E 139°44'0 0.0
2018-Aug-15 12:59N 35°26' E 139°44'0 0.0
2018-Aug-15 12:29N 35°26' E 139°44'0 0.0
2018-Aug-15 11:59N 35°26' E 139°44'0 0.0
2018-Aug-15 11:29N 35°26' E 139°44'0 0.0
2018-Aug-15 10:59N 35°26' E 139°44'0 0.0
2018-Aug-15 10:29N 35°26' E 139°44'0 0.0
2018-Aug-15 09:59N 35°26' E 139°44'0 0.0
2018-Aug-15 09:29N 35°26' E 139°44'0 0.0
2018-Aug-15 09:00N 35°26' E 139°44'0 0.0
2018-Aug-15 08:30N 35°26' E 139°44'0 0.0
2018-Aug-15 07:59N 35°26' E 139°44'0 0.0
2018-Aug-15 07:26N 35°26' E 139°44'0 0.0
2018-Aug-15 06:59N 35°26' E 139°44'0 0.1
2018-Aug-15 06:29N 35°26' E 139°44'0 0.0
2018-Aug-15 05:59N 35°26' E 139°44'0 0.0
2018-Aug-15 05:29N 35°26' E 139°44'0 0.0
2018-Aug-15 04:59N 35°26' E 139°44'0 0.0
2018-Aug-15 04:29N 35°26' E 139°44'0 0.0
2018-Aug-15 03:59N 35°26' E 139°44'0 0.1
2018-Aug-15 03:29N 35°26' E 139°44'0 0.1
2018-Aug-15 02:59N 35°26' E 139°44'0 0.0
2018-Aug-15 02:31N 35°26' E 139°44'2 4.9
2018-Aug-15 02:01N 35°27' E 139°47'510.2
2018-Aug-15 01:31N 35°30' E 139°52'510.3
2018-Aug-15 01:00N 35°31' E 139°58'3 0.1
2018-Aug-14 03:50N 35°30' E 140°01'0 1.2
2018-Aug-14 03:30N 35°30' E 140°01'3 6.2
2018-Aug-14 03:00N 35°32' E 139°58'2 1.7
2018-Aug-14 02:07N 35°33' E 139°56'0 0.0
2018-Aug-14 01:55N 35°33' E 139°56'0 0.0
2018-Aug-14 00:19N 35°33' E 139°56'0 0.0
2018-Aug-13 23:58N 35°33' E 139°56'0 0.0
2018-Aug-13 23:01N 35°33' E 139°56'0 0.0
2018-Aug-13 22:37N 35°33' E 139°56'0 0.0
2018-Aug-13 22:16N 35°33' E 139°56'0 0.1
2018-Aug-13 21:55N 35°33' E 139°56'0 0.0
2018-Aug-13 21:25N 35°33' E 139°56'0 0.1
2018-Aug-13 20:43N 35°33' E 139°56'0 0.0
2018-Aug-13 20:22N 35°33' E 139°56'0 0.0
2018-Aug-13 18:46N 35°33' E 139°56'0 0.0
2018-Aug-13 17:49N 35°33' E 139°56'0 0.1
2018-Aug-13 17:25N 35°33' E 139°56'0 0.1
2018-Aug-13 16:58N 35°33' E 139°56'0 0.1
2018-Aug-13 16:25N 35°33' E 139°56'0 0.1
2018-Aug-13 15:58N 35°33' E 139°56'0 0.1
2018-Aug-13 15:07N 35°33' E 139°56'0 0.0
2018-Aug-13 14:58N 35°33' E 139°56'0 0.0
2018-Aug-13 14:25N 35°33' E 139°56'0 0.1
2018-Aug-13 13:58N 35°33' E 139°56'0 0.1
2018-Aug-13 13:10N 35°33' E 139°56'0 0.0
2018-Aug-13 12:58N 35°33' E 139°56'0 0.0
2018-Aug-13 11:52N 35°33' E 139°56'0 0.3
2018-Aug-13 11:30N 35°33' E 139°56'3 5.0
2018-Aug-13 11:00N 35°31' E 139°54'510.5
2018-Aug-13 10:30N 35°27' E 139°50'611.9
2018-Aug-13 10:01N 35°22' E 139°45'611.1
2018-Aug-13 09:30N 35°17' E 139°46'611.8
2018-Aug-13 09:00N 35°11' E 139°47'3 6.8
2018-Aug-13 08:31N 35°08' E 139°46'2 4.5
2018-Aug-13 08:00N 35°05' E 139°45'4 7.4
2018-Aug-13 07:30N 35°03' E 139°42'3 5.0
2018-Aug-13 07:00N 35°02' E 139°39'3 6.1
2018-Aug-13 06:30N 34°60' E 139°37'713.0
2018-Aug-13 06:00N 34°56' E 139°30'23111.8
2018-Aug-12 10:27N 33°38' E 135°07'1011.3
2018-Aug-12 09:34N 33°46' E 134°58'111.6
2018-Aug-12 09:30N 33°46' E 134°58'811.9
2018-Aug-12 08:48N 33°54' E 134°56'312.2
2018-Aug-12 08:31N 33°58' E 134°56'712.4
2018-Aug-12 07:59N 34°04' E 134°56'612.4
2018-Aug-12 07:30N 34°10' E 134°55'5 9.7
2018-Aug-12 07:00N 34°15' E 134°58'612.7
2018-Aug-12 06:31N 34°21' E 134°59'612.8
2018-Aug-12 06:01N 34°27' E 135°02'713.3
2018-Aug-12 05:31N 34°32' E 135°07'3 6.0
2018-Aug-12 05:00N 34°35' E 135°05'813.9
2018-Aug-12 04:26N 34°36' E 134°55'715.9
2018-Aug-12 04:00N 34°33' E 134°47'713.8
2018-Aug-12 03:30N 34°30' E 134°40'713.3
2018-Aug-12 03:00N 34°28' E 134°32'713.5
2018-Aug-12 02:29N 34°25' E 134°25'713.5
2018-Aug-12 02:00N 34°24' E 134°17'7 0.2
2018-Aug-10 20:54N 34°26' E 134°25'511.5
2018-Aug-10 20:30N 34°27' E 134°30'611.4
2018-Aug-10 20:01N 34°30' E 134°36'611.4
2018-Aug-10 19:31N 34°32' E 134°43'713.1
2018-Aug-10 19:01N 34°34' E 134°50'612.0
2018-Aug-10 18:30N 34°37' E 134°57'5 9.5
2018-Aug-10 18:00N 34°37' E 135°02'5 8.9
2018-Aug-10 17:30N 34°34' E 135°07'3 6.4
2018-Aug-10 17:00N 34°31' E 135°08'510.9
2018-Aug-10 16:31N 34°27' E 135°05'611.4
2018-Aug-10 16:01N 34°22' E 135°02'611.1
2018-Aug-10 15:31N 34°16' E 134°59'511.0
2018-Aug-10 15:01N 34°11' E 134°59'4 8.6
2018-Aug-10 14:31N 34°07' E 134°58'4 7.8
2018-Aug-10 14:01N 34°03' E 134°56'3 5.3
2018-Aug-10 13:31N 34°01' E 134°56'3 5.6
2018-Aug-10 13:01N 33°58' E 134°56'  

Dump ship's entire track history